createdAt,value
2022-12-08T00:01:10.133Z,2.33
2022-12-08T00:02:11.977Z,2.28
2022-12-08T00:03:13.966Z,2.25
2022-12-08T00:04:15.568Z,2.25
2022-12-08T00:05:17.150Z,2.27
2022-12-08T00:06:23.475Z,2.24
2022-12-08T00:07:25.423Z,2.24
2022-12-08T00:08:27.000Z,2.20
2022-12-08T00:09:32.043Z,2.21
2022-12-08T00:10:51.788Z,2.24
2022-12-08T00:11:58.867Z,2.17
2022-12-08T00:13:00.352Z,2.17
2022-12-08T00:14:01.977Z,2.15
2022-12-08T00:15:04.033Z,2.16
2022-12-08T00:16:05.993Z,2.17
2022-12-08T00:17:09.793Z,2.19
2022-12-08T00:18:11.572Z,2.16
2022-12-08T00:19:13.089Z,2.12
2022-12-08T00:20:14.702Z,2.13
2022-12-08T00:21:16.239Z,2.10
2022-12-08T00:22:17.771Z,2.10
2022-12-08T00:23:19.313Z,2.13
2022-12-08T00:24:22.119Z,2.07
2022-12-08T00:25:23.631Z,2.06
2022-12-08T00:26:25.197Z,2.02
2022-12-08T00:27:26.708Z,2.07
2022-12-08T00:28:28.242Z,2.12
2022-12-08T00:29:29.889Z,2.08
2022-12-08T00:30:31.438Z,2.08
2022-12-08T00:31:33.077Z,2.06
2022-12-08T00:32:34.754Z,2.04
2022-12-08T00:33:36.402Z,2.06
2022-12-08T00:34:38.201Z,2.01
2022-12-08T00:35:43.065Z,2.03
2022-12-08T00:36:45.727Z,2.05
2022-12-08T00:37:47.247Z,2.06
2022-12-08T00:38:48.788Z,2.05
2022-12-08T00:39:50.294Z,2.06
2022-12-08T00:40:51.804Z,2.05
2022-12-08T00:41:53.331Z,2.09
2022-12-08T00:42:54.975Z,2.05
2022-12-08T00:43:56.539Z,2.06
2022-12-08T00:44:58.039Z,2.02
2022-12-08T00:45:59.626Z,2.03
2022-12-08T00:47:01.260Z,2.06
2022-12-08T00:48:02.769Z,1.98
2022-12-08T00:49:05.831Z,1.99
2022-12-08T00:50:08.155Z,1.94
2022-12-08T00:51:09.693Z,1.93
2022-12-08T00:52:11.390Z,1.96
2022-12-08T00:53:12.940Z,1.92
2022-12-08T00:54:14.725Z,1.91
2022-12-08T00:55:16.359Z,1.87
2022-12-08T00:56:17.846Z,1.86
2022-12-08T00:57:19.339Z,1.88
2022-12-08T00:58:20.888Z,1.84
2022-12-08T00:59:22.393Z,1.88
2022-12-08T01:00:23.952Z,1.89
2022-12-08T01:01:25.831Z,1.92
2022-12-08T01:02:27.370Z,1.91
2022-12-08T01:03:28.906Z,1.93
2022-12-08T01:04:30.463Z,1.89
2022-12-08T01:05:31.998Z,1.89
2022-12-08T01:06:35.635Z,1.89
2022-12-08T01:07:37.128Z,1.89
2022-12-08T01:08:40.076Z,1.91
2022-12-08T01:09:41.690Z,1.93
2022-12-08T01:10:43.226Z,1.95
2022-12-08T01:11:45.379Z,1.96
2022-12-08T01:12:46.904Z,1.93
2022-12-08T01:13:48.468Z,1.83
2022-12-08T01:14:50.033Z,1.83
2022-12-08T01:15:51.554Z,1.81
2022-12-08T01:16:53.202Z,1.82
2022-12-08T01:17:55.153Z,1.84
2022-12-08T01:18:58.662Z,1.85
2022-12-08T01:20:00.273Z,1.87
2022-12-08T01:21:08.201Z,1.88
2022-12-08T01:22:09.747Z,1.90
2022-12-08T01:23:11.257Z,1.87
2022-12-08T01:24:15.314Z,1.87
2022-12-08T01:25:16.854Z,1.84
2022-12-08T01:26:19.554Z,1.86
2022-12-08T01:27:21.088Z,1.80
2022-12-08T01:28:22.634Z,1.81
2022-12-08T01:29:24.209Z,1.75
2022-12-08T01:30:25.759Z,1.75
2022-12-08T01:31:27.493Z,1.73
2022-12-08T01:32:29.104Z,1.74
2022-12-08T01:33:31.705Z,1.72
2022-12-08T01:34:33.216Z,1.73
2022-12-08T01:35:34.766Z,1.70
2022-12-08T01:36:37.163Z,1.71
2022-12-08T01:37:38.711Z,1.70
2022-12-08T01:38:40.256Z,1.71
2022-12-08T01:39:41.849Z,1.68
2022-12-08T01:40:43.402Z,1.66
2022-12-08T01:41:47.035Z,1.66
2022-12-08T01:42:49.844Z,1.63
2022-12-08T01:43:57.104Z,1.57
2022-12-08T01:45:05.305Z,1.58
2022-12-08T01:46:06.855Z,1.62
2022-12-08T01:47:08.751Z,1.59
2022-12-08T01:48:16.396Z,1.64
2022-12-08T01:49:22.774Z,1.71
2022-12-08T01:50:24.491Z,1.69
2022-12-08T01:51:26.601Z,1.71
2022-12-08T01:52:40.652Z,1.74
2022-12-08T01:53:42.330Z,1.74
2022-12-08T01:54:58.177Z,1.71
2022-12-08T01:56:06.742Z,1.78
2022-12-08T01:57:12.038Z,1.79
2022-12-08T01:58:20.550Z,1.79
2022-12-08T01:59:23.878Z,1.80
2022-12-08T02:00:25.523Z,1.76
2022-12-08T02:01:27.264Z,1.76
2022-12-08T02:02:36.216Z,1.77
2022-12-08T02:03:49.885Z,1.83
2022-12-08T02:04:51.381Z,1.80
2022-12-08T02:05:53.182Z,1.82
2022-12-08T02:06:54.760Z,1.83
2022-12-08T02:07:57.976Z,1.89
2022-12-08T02:09:01.385Z,1.90
2022-12-08T02:10:04.052Z,1.96
2022-12-08T02:11:08.903Z,2.00
2022-12-08T02:12:11.237Z,2.06
2022-12-08T02:13:16.586Z,2.08
2022-12-08T02:14:18.389Z,2.14
2022-12-08T02:15:24.744Z,2.14
2022-12-08T02:16:53.882Z,2.16
2022-12-08T02:18:16.148Z,2.18
2022-12-08T02:19:42.212Z,2.21
2022-12-08T02:20:52.574Z,2.25
2022-12-08T02:22:04.809Z,2.27
2022-12-08T02:23:06.231Z,2.27
2022-12-08T02:24:07.582Z,2.22
2022-12-08T02:25:29.520Z,2.18
2022-12-08T02:26:52.401Z,2.10
2022-12-08T02:28:07.510Z,2.05
2022-12-08T02:29:19.818Z,1.96
2022-12-08T02:30:33.106Z,1.92
2022-12-08T02:32:05.646Z,1.85
2022-12-08T02:33:07.028Z,1.87
2022-12-08T02:34:08.483Z,1.81
2022-12-08T02:35:28.530Z,1.77
2022-12-08T02:36:45.135Z,1.72
2022-12-08T02:38:04.666Z,1.65
2022-12-08T02:39:24.730Z,1.68
2022-12-08T02:41:07.230Z,1.70
2022-12-08T02:42:21.565Z,1.70
2022-12-08T02:43:35.819Z,1.67
2022-12-08T02:44:41.489Z,1.67
2022-12-08T02:45:53.488Z,1.73
2022-12-08T02:47:07.042Z,1.70
2022-12-08T02:48:10.100Z,1.68
2022-12-08T02:49:11.955Z,1.64
2022-12-08T02:50:14.701Z,1.61
2022-12-08T02:51:16.283Z,1.63
2022-12-08T02:52:17.737Z,1.52
2022-12-08T02:53:19.115Z,1.51
2022-12-08T02:54:20.626Z,1.44
2022-12-08T02:55:29.418Z,1.42
2022-12-08T02:56:54.950Z,1.38
2022-12-08T02:58:14.550Z,1.33
2022-12-08T02:59:25.245Z,1.35
2022-12-08T03:00:33.855Z,1.38
2022-12-08T03:02:05.415Z,1.37
2022-12-08T03:03:39.306Z,1.32
2022-12-08T03:04:43.580Z,1.30
2022-12-08T03:06:05.582Z,1.31
2022-12-08T03:07:14.950Z,1.35
2022-12-08T03:08:41.798Z,1.33
2022-12-08T03:09:51.357Z,1.35
2022-12-08T03:11:14.472Z,1.34
2022-12-08T03:12:25.049Z,1.32
2022-12-08T03:13:34.501Z,1.32
2022-12-08T03:14:38.239Z,1.29
2022-12-08T03:15:42.159Z,1.26
2022-12-08T03:16:48.583Z,1.31
2022-12-08T03:17:56.825Z,1.36
2022-12-08T03:19:06.663Z,1.37
2022-12-08T03:20:13.227Z,1.35
2022-12-08T03:21:18.031Z,1.38
2022-12-08T03:22:24.515Z,1.40
2022-12-08T03:23:26.601Z,1.38
2022-12-08T03:24:31.017Z,1.38
2022-12-08T03:25:36.532Z,1.38
2022-12-08T03:26:50.411Z,1.39
2022-12-08T03:27:53.394Z,1.32
2022-12-08T03:28:55.099Z,1.32
2022-12-08T03:29:58.031Z,1.33
2022-12-08T03:31:06.105Z,1.35
2022-12-08T03:32:28.432Z,1.31
2022-12-08T03:33:35.442Z,1.33
2022-12-08T03:34:42.156Z,1.33
2022-12-08T03:35:44.548Z,1.33
2022-12-08T03:36:46.068Z,1.32
2022-12-08T03:37:47.575Z,1.32
2022-12-08T03:38:52.023Z,1.30
2022-12-08T03:39:53.531Z,1.29
2022-12-08T03:40:55.021Z,1.33
2022-12-08T03:41:56.524Z,1.30
2022-12-08T03:42:58.025Z,1.34
2022-12-08T03:43:59.559Z,1.34
2022-12-08T03:45:01.085Z,1.34
2022-12-08T03:46:02.968Z,1.31
2022-12-08T03:47:04.658Z,1.31
2022-12-08T03:48:06.277Z,1.34
2022-12-08T03:49:07.769Z,1.38
2022-12-08T03:50:09.643Z,1.38
2022-12-08T03:51:11.745Z,1.40
2022-12-08T03:52:13.220Z,1.38
2022-12-08T03:53:14.823Z,1.38
2022-12-08T03:54:16.323Z,1.37
2022-12-08T03:55:18.289Z,1.38
2022-12-08T03:56:34.736Z,1.42
2022-12-08T03:57:36.377Z,1.42
2022-12-08T03:58:37.881Z,1.41
2022-12-08T03:59:39.560Z,1.44
2022-12-08T04:00:41.056Z,1.46
2022-12-08T04:01:42.625Z,1.44
2022-12-08T04:02:44.241Z,1.42
2022-12-08T04:03:45.900Z,1.36
2022-12-08T04:04:47.426Z,1.34
2022-12-08T04:05:48.958Z,1.33
2022-12-08T04:06:50.498Z,1.35
2022-12-08T04:07:52.085Z,1.40
2022-12-08T04:08:53.628Z,1.43
2022-12-08T04:09:55.167Z,1.45
2022-12-08T04:10:56.677Z,1.46
2022-12-08T04:11:58.210Z,1.50
2022-12-08T04:12:59.710Z,1.45
2022-12-08T04:14:01.282Z,1.39
2022-12-08T04:15:02.938Z,1.40
2022-12-08T04:16:05.192Z,1.35
2022-12-08T04:17:06.826Z,1.35
2022-12-08T04:18:08.357Z,1.37
2022-12-08T04:19:09.869Z,1.42
2022-12-08T04:20:11.639Z,1.41
2022-12-08T04:21:13.902Z,1.38
2022-12-08T04:22:15.398Z,1.34
2022-12-08T04:23:16.917Z,1.32
2022-12-08T04:24:18.651Z,1.29
2022-12-08T04:25:20.150Z,1.21
2022-12-08T04:26:21.646Z,1.18
2022-12-08T04:27:23.178Z,1.20
2022-12-08T04:28:24.754Z,1.21
2022-12-08T04:29:26.240Z,1.23
2022-12-08T04:30:27.821Z,1.24
2022-12-08T04:31:29.463Z,1.28
2022-12-08T04:32:31.027Z,1.26
2022-12-08T04:33:32.556Z,1.24
2022-12-08T04:34:34.018Z,1.19
2022-12-08T04:35:35.655Z,1.26
2022-12-08T04:36:37.163Z,1.29
2022-12-08T04:37:38.681Z,1.34
2022-12-08T04:38:40.188Z,1.35
2022-12-08T04:39:41.703Z,1.32
2022-12-08T04:40:43.357Z,1.29
2022-12-08T04:41:44.852Z,1.29
2022-12-08T04:42:46.448Z,1.33
2022-12-08T04:43:47.973Z,1.39
2022-12-08T04:44:49.475Z,1.31
2022-12-08T04:45:51.001Z,1.31
2022-12-08T04:46:52.507Z,1.33
2022-12-08T04:47:54.078Z,1.32
2022-12-08T04:48:55.588Z,1.28
2022-12-08T04:49:57.138Z,1.28
2022-12-08T04:50:58.623Z,1.25
2022-12-08T04:52:00.133Z,1.28
2022-12-08T04:53:01.629Z,1.25
2022-12-08T04:54:03.208Z,1.24
2022-12-08T04:55:05.305Z,1.25
2022-12-08T04:56:11.856Z,1.27
2022-12-08T04:57:13.524Z,1.22
2022-12-08T04:58:17.887Z,1.28
2022-12-08T04:59:19.418Z,1.26
2022-12-08T05:00:20.969Z,1.25
2022-12-08T05:01:22.587Z,1.30
2022-12-08T05:02:24.219Z,1.32
2022-12-08T05:03:28.665Z,1.34
2022-12-08T05:04:30.441Z,1.34
2022-12-08T05:05:31.944Z,1.37
2022-12-08T05:06:33.413Z,1.39
2022-12-08T05:07:34.911Z,1.34
2022-12-08T05:08:36.396Z,1.35
2022-12-08T05:09:37.901Z,1.33
2022-12-08T05:10:39.645Z,1.35
2022-12-08T05:11:45.397Z,1.37
2022-12-08T05:12:50.261Z,1.33
2022-12-08T05:13:51.820Z,1.37
2022-12-08T05:14:53.313Z,1.40
2022-12-08T05:15:54.858Z,1.39
2022-12-08T05:16:56.411Z,1.38
2022-12-08T05:17:57.979Z,1.40
2022-12-08T05:18:59.486Z,1.39
2022-12-08T05:20:01.219Z,1.39
2022-12-08T05:21:03.859Z,1.43
2022-12-08T05:22:05.407Z,1.50
2022-12-08T05:23:06.904Z,1.47
2022-12-08T05:24:08.601Z,1.45
2022-12-08T05:25:10.154Z,1.42
2022-12-08T05:26:11.685Z,1.41
2022-12-08T05:27:13.177Z,1.39
2022-12-08T05:28:40.117Z,1.38
2022-12-08T05:29:36.278Z,1.44
2022-12-08T05:30:37.826Z,1.44
2022-12-08T05:31:39.369Z,1.46
2022-12-08T05:32:41.024Z,1.48
2022-12-08T05:33:44.024Z,1.44
2022-12-08T05:34:45.538Z,1.46
2022-12-08T05:35:47.054Z,1.43
2022-12-08T05:36:48.631Z,1.42
2022-12-08T05:37:50.152Z,1.42
2022-12-08T05:38:51.655Z,1.48
2022-12-08T05:39:53.145Z,1.44
2022-12-08T05:40:54.662Z,1.40
2022-12-08T05:41:56.142Z,1.37
2022-12-08T05:42:57.620Z,1.30
2022-12-08T05:43:59.137Z,1.30
2022-12-08T05:45:00.655Z,1.32
2022-12-08T05:46:02.498Z,1.38
2022-12-08T05:47:04.154Z,1.33
2022-12-08T05:48:05.709Z,1.37
2022-12-08T05:49:07.226Z,1.36
2022-12-08T05:50:09.032Z,1.38
2022-12-08T05:51:18.793Z,1.44
2022-12-08T05:52:20.331Z,1.45
2022-12-08T05:53:21.819Z,1.41
2022-12-08T05:54:23.321Z,1.40
2022-12-08T05:55:24.832Z,1.40
2022-12-08T05:56:26.332Z,1.43
2022-12-08T05:57:27.965Z,1.37
2022-12-08T05:58:29.501Z,1.38
2022-12-08T05:59:31.062Z,1.38
2022-12-08T06:00:32.739Z,1.35
2022-12-08T06:01:34.684Z,1.38
2022-12-08T06:02:36.472Z,1.39
2022-12-08T06:03:38.160Z,1.39
2022-12-08T06:04:39.928Z,1.45
2022-12-08T06:05:42.454Z,1.48
2022-12-08T06:06:43.978Z,1.47
2022-12-08T06:07:45.555Z,1.47
2022-12-08T06:08:47.318Z,1.45
2022-12-08T06:09:48.852Z,1.44
2022-12-08T06:10:50.525Z,1.47
2022-12-08T06:11:52.029Z,1.51
2022-12-08T06:12:53.564Z,1.52
2022-12-08T06:13:56.088Z,1.57
2022-12-08T06:14:57.591Z,1.58
2022-12-08T06:16:06.584Z,1.54
2022-12-08T06:17:08.205Z,1.56
2022-12-08T06:18:10.612Z,1.58
2022-12-08T06:19:12.143Z,1.58
2022-12-08T06:20:13.685Z,1.59
2022-12-08T06:21:17.185Z,1.56
2022-12-08T06:22:18.697Z,1.52
2022-12-08T06:23:20.178Z,1.54
2022-12-08T06:24:21.729Z,1.56
2022-12-08T06:25:23.940Z,1.50
2022-12-08T06:26:25.556Z,1.52
2022-12-08T06:27:27.073Z,1.59
2022-12-08T06:28:29.970Z,1.57
2022-12-08T06:29:31.473Z,1.57
2022-12-08T06:30:33.115Z,1.52
2022-12-08T06:31:34.696Z,1.54
2022-12-08T06:32:36.530Z,1.56
2022-12-08T06:33:38.518Z,1.59
2022-12-08T06:34:40.018Z,1.59
2022-12-08T06:35:41.583Z,1.59
2022-12-08T06:36:43.098Z,1.57
2022-12-08T06:37:44.608Z,1.61
2022-12-08T06:38:46.834Z,1.60
2022-12-08T06:39:48.337Z,1.44
2022-12-08T06:40:56.665Z,1.46
2022-12-08T06:41:58.199Z,1.47
2022-12-08T06:42:59.718Z,1.47
2022-12-08T06:44:01.225Z,1.51
2022-12-08T06:45:02.919Z,1.51
2022-12-08T06:46:06.624Z,1.56
2022-12-08T06:47:08.230Z,1.56
2022-12-08T06:48:09.782Z,1.56
2022-12-08T06:49:11.297Z,1.59
2022-12-08T06:50:13.478Z,1.60
2022-12-08T06:51:18.124Z,1.57
2022-12-08T06:52:19.636Z,1.58
2022-12-08T06:53:21.161Z,1.61
2022-12-08T06:54:22.675Z,1.63
2022-12-08T06:55:57.255Z,1.62
2022-12-08T06:56:45.681Z,1.65
2022-12-08T06:57:47.221Z,1.68
2022-12-08T06:58:52.541Z,1.71
2022-12-08T06:59:54.420Z,1.72
2022-12-08T07:00:56.008Z,1.72
2022-12-08T07:01:57.701Z,1.74
2022-12-08T07:02:59.322Z,1.79
2022-12-08T07:04:00.850Z,1.77
2022-12-08T07:05:02.378Z,1.84
2022-12-08T07:06:04.838Z,1.92
2022-12-08T07:07:06.415Z,1.91
2022-12-08T07:08:09.153Z,1.93
2022-12-08T07:09:10.726Z,1.97
2022-12-08T07:10:12.272Z,2.00
2022-12-08T07:11:19.638Z,2.02
2022-12-08T07:12:22.897Z,2.12
2022-12-08T07:13:24.401Z,2.28
2022-12-08T07:14:26.009Z,2.36
2022-12-08T07:15:27.687Z,2.38
2022-12-08T07:16:29.270Z,2.44
2022-12-08T07:17:30.873Z,2.49
2022-12-08T07:18:32.369Z,2.62
2022-12-08T07:19:33.928Z,2.83
2022-12-08T07:20:35.626Z,2.89
2022-12-08T07:21:37.157Z,2.88
2022-12-08T07:22:38.657Z,2.79
2022-12-08T07:23:40.571Z,2.83
2022-12-08T07:24:42.120Z,2.85
2022-12-08T07:25:43.643Z,2.83
2022-12-08T07:26:45.127Z,2.86
2022-12-08T07:27:46.908Z,2.92
2022-12-08T07:28:48.507Z,2.93
2022-12-08T07:29:50.017Z,2.93
2022-12-08T07:30:51.585Z,2.93
2022-12-08T07:31:53.122Z,2.92
2022-12-08T07:32:54.654Z,2.89
2022-12-08T07:33:57.141Z,2.91
2022-12-08T07:34:58.637Z,2.88
2022-12-08T07:36:02.670Z,2.87
2022-12-08T07:37:04.284Z,2.81
2022-12-08T07:38:05.828Z,2.84
2022-12-08T07:39:07.455Z,2.89
2022-12-08T07:40:09.810Z,2.94
2022-12-08T07:41:13.108Z,2.94
2022-12-08T07:42:14.650Z,2.98
2022-12-08T07:43:22.342Z,3.04
2022-12-08T07:44:24.449Z,3.08
2022-12-08T07:45:31.485Z,3.09
2022-12-08T07:46:33.342Z,3.07
2022-12-08T07:47:34.911Z,3.09
2022-12-08T07:48:36.388Z,3.12
2022-12-08T07:49:37.899Z,3.11
2022-12-08T07:50:39.821Z,3.09
2022-12-08T07:51:41.358Z,3.08
2022-12-08T07:52:42.853Z,3.08
2022-12-08T07:53:53.150Z,3.01
2022-12-08T07:54:55.538Z,3.00
2022-12-08T07:55:56.948Z,3.01
2022-12-08T07:56:58.569Z,3.01
2022-12-08T07:58:00.127Z,3.00
2022-12-08T07:59:01.631Z,2.99
2022-12-08T08:00:04.986Z,2.93
2022-12-08T08:01:28.716Z,2.92
2022-12-08T08:02:30.448Z,2.98
2022-12-08T08:03:33.006Z,2.98
2022-12-08T08:04:34.581Z,2.98
2022-12-08T08:05:36.114Z,2.94
2022-12-08T08:06:37.627Z,2.91
2022-12-08T08:07:41.003Z,2.89
2022-12-08T08:08:42.581Z,2.77
2022-12-08T08:09:44.071Z,2.73
2022-12-08T08:10:46.411Z,2.69
2022-12-08T08:12:07.237Z,2.74
2022-12-08T08:13:09.608Z,2.76
2022-12-08T08:14:11.435Z,2.71
2022-12-08T08:15:13.082Z,2.68
2022-12-08T08:16:14.764Z,2.61
2022-12-08T08:17:16.499Z,2.65
2022-12-08T08:18:18.149Z,2.61
2022-12-08T08:19:19.696Z,2.60
2022-12-08T08:20:22.070Z,2.51
2022-12-08T08:22:46.504Z,2.56
2022-12-08T08:23:48.174Z,2.55
2022-12-08T08:24:49.679Z,2.58
2022-12-08T08:25:51.202Z,2.61
2022-12-08T08:26:52.745Z,2.63
2022-12-08T08:27:55.043Z,2.61
2022-12-08T08:28:56.607Z,2.61
2022-12-08T08:29:58.143Z,2.63
2022-12-08T08:31:00.925Z,2.60
2022-12-08T08:32:02.603Z,2.54
2022-12-08T08:33:04.153Z,2.59
2022-12-08T08:34:05.838Z,2.60
2022-12-08T08:35:08.706Z,2.62
2022-12-08T08:36:10.643Z,2.60
2022-12-08T08:37:12.270Z,2.61
2022-12-08T08:38:13.814Z,2.67
2022-12-08T08:39:15.354Z,2.69
2022-12-08T08:40:18.037Z,2.74
2022-12-08T08:41:19.545Z,2.73
2022-12-08T08:42:21.140Z,2.72
2022-12-08T08:43:22.679Z,2.73
2022-12-08T08:44:24.191Z,2.77
2022-12-08T08:45:25.702Z,2.74
2022-12-08T08:46:27.313Z,2.73
2022-12-08T08:47:28.853Z,2.72
2022-12-08T08:48:31.487Z,2.75
2022-12-08T08:49:33.082Z,2.79
2022-12-08T08:50:37.752Z,2.85
2022-12-08T08:51:39.487Z,2.80
2022-12-08T08:52:40.984Z,2.78
2022-12-08T08:53:42.791Z,2.84
2022-12-08T08:54:44.280Z,2.86
2022-12-08T08:55:46.409Z,2.83
2022-12-08T08:56:47.937Z,2.85
2022-12-08T08:57:49.456Z,2.84
2022-12-08T08:58:52.639Z,2.84
2022-12-08T08:59:54.510Z,2.85
2022-12-08T09:00:56.006Z,2.92
2022-12-08T09:01:57.741Z,2.95
2022-12-08T09:02:59.361Z,2.94
2022-12-08T09:04:01.060Z,2.97
2022-12-08T09:05:03.607Z,2.94
2022-12-08T09:06:05.367Z,2.99
2022-12-08T09:07:06.881Z,3.04
2022-12-08T09:08:08.677Z,3.08
2022-12-08T09:09:10.471Z,3.09
2022-12-08T09:10:11.985Z,3.12
2022-12-08T09:11:13.582Z,3.13
2022-12-08T09:12:15.262Z,3.15
2022-12-08T09:13:16.838Z,3.16
2022-12-08T09:14:18.348Z,3.18
2022-12-08T09:15:19.988Z,3.15
2022-12-08T09:16:22.228Z,3.17
2022-12-08T09:17:23.770Z,3.17
2022-12-08T09:18:25.298Z,3.20
2022-12-08T09:19:26.830Z,3.21
2022-12-08T09:20:28.413Z,3.17
2022-12-08T09:21:30.128Z,3.17
2022-12-08T09:22:31.667Z,3.22
2022-12-08T09:23:35.611Z,3.22
2022-12-08T09:24:37.663Z,3.19
2022-12-08T09:25:39.175Z,3.22
2022-12-08T09:26:41.089Z,3.26
2022-12-08T09:27:42.651Z,3.26
2022-12-08T09:28:44.217Z,3.21
2022-12-08T09:29:45.795Z,3.20
2022-12-08T09:30:47.462Z,3.23
2022-12-08T09:31:49.153Z,3.27
2022-12-08T09:32:50.859Z,3.30
2022-12-08T09:33:52.771Z,3.29
2022-12-08T09:34:55.647Z,3.23
2022-12-08T09:36:01.506Z,3.22
2022-12-08T09:37:03.043Z,3.27
2022-12-08T09:38:04.644Z,3.30
2022-12-08T09:39:06.263Z,3.32
2022-12-08T09:40:15.128Z,3.26
2022-12-08T09:41:44.895Z,3.18
2022-12-08T09:43:18.066Z,3.21
2022-12-08T09:44:44.224Z,3.25
2022-12-08T09:45:47.671Z,3.22
2022-12-08T09:46:52.781Z,3.28
2022-12-08T09:47:59.356Z,3.30
2022-12-08T09:49:02.566Z,3.39
2022-12-08T09:50:12.757Z,3.53
2022-12-08T09:51:15.504Z,3.61
2022-12-08T09:52:26.360Z,3.64
2022-12-08T09:53:59.469Z,3.70
2022-12-08T09:55:04.381Z,3.69
2022-12-08T09:56:05.841Z,3.71
2022-12-08T09:57:11.927Z,3.66
2022-12-08T09:58:44.268Z,3.69
2022-12-08T09:59:53.408Z,3.68
2022-12-08T10:00:55.116Z,3.63
2022-12-08T10:01:56.990Z,3.68
2022-12-08T10:02:58.587Z,3.66
2022-12-08T10:04:01.535Z,3.68
2022-12-08T10:05:03.357Z,3.72
2022-12-08T10:06:19.554Z,3.79
2022-12-08T10:07:41.371Z,3.80
2022-12-08T10:09:12.788Z,3.83
2022-12-08T10:10:33.921Z,3.85
2022-12-08T10:12:00.309Z,3.84
2022-12-08T10:13:16.893Z,3.78
2022-12-08T10:14:43.117Z,3.71
2022-12-08T10:16:03.501Z,3.68
2022-12-08T10:17:15.466Z,3.68
2022-12-08T10:18:20.566Z,3.71
2022-12-08T10:19:25.137Z,3.68
2022-12-08T10:20:36.300Z,3.68
2022-12-08T10:21:39.682Z,3.64
2022-12-08T10:22:44.654Z,3.57
2022-12-08T10:23:51.210Z,3.61
2022-12-08T10:25:17.672Z,3.61
2022-12-08T10:26:21.018Z,3.62
2022-12-08T10:27:23.372Z,3.63
2022-12-08T10:28:24.915Z,3.63
2022-12-08T10:29:26.383Z,3.63
2022-12-08T10:30:27.927Z,3.67
2022-12-08T10:31:31.293Z,3.70
2022-12-08T10:32:35.854Z,3.71
2022-12-08T10:33:37.380Z,3.67
2022-12-08T10:35:08.291Z,3.62
2022-12-08T10:36:10.694Z,3.61
2022-12-08T10:37:15.228Z,3.58
2022-12-08T10:38:17.751Z,3.57
2022-12-08T10:39:35.796Z,3.52
2022-12-08T10:40:42.330Z,3.43
2022-12-08T10:41:47.073Z,3.44
2022-12-08T10:42:56.383Z,3.48
2022-12-08T10:44:01.477Z,3.52
2022-12-08T10:45:08.716Z,3.55
2022-12-08T10:46:11.877Z,3.53
2022-12-08T10:47:14.115Z,3.52
2022-12-08T10:48:21.114Z,3.42
2022-12-08T10:49:30.121Z,3.36
2022-12-08T10:50:33.451Z,3.38
2022-12-08T10:51:34.883Z,3.42
2022-12-08T10:52:40.148Z,3.39
2022-12-08T10:53:46.326Z,3.37
2022-12-08T10:54:52.579Z,3.32
2022-12-08T10:56:07.738Z,3.26
2022-12-08T10:57:21.185Z,3.21
2022-12-08T10:58:36.428Z,3.22
2022-12-08T10:59:42.155Z,3.23
2022-12-08T11:00:43.849Z,3.26
2022-12-08T11:01:48.397Z,3.22
2022-12-08T11:03:02.461Z,3.18
2022-12-08T11:04:06.139Z,3.22
2022-12-08T11:05:16.479Z,3.24
2022-12-08T11:06:30.269Z,3.25
2022-12-08T11:07:31.878Z,3.23
2022-12-08T11:08:33.511Z,3.21
2022-12-08T11:09:43.584Z,3.11
2022-12-08T11:10:45.464Z,3.08
2022-12-08T11:12:08.745Z,3.11
2022-12-08T11:13:19.607Z,3.16
2022-12-08T11:14:42.794Z,3.24
2022-12-08T11:15:46.449Z,3.23
2022-12-08T11:16:49.939Z,3.22
2022-12-08T11:18:01.233Z,3.23
2022-12-08T11:19:05.130Z,3.22
2022-12-08T11:20:09.708Z,3.20
2022-12-08T11:21:16.948Z,3.18
2022-12-08T11:22:23.890Z,3.26
2022-12-08T11:23:27.174Z,3.25
2022-12-08T11:24:31.187Z,3.25
2022-12-08T11:25:36.216Z,3.21
2022-12-08T11:26:38.316Z,3.21
2022-12-08T11:27:46.133Z,3.14
2022-12-08T11:28:47.643Z,3.11
2022-12-08T11:29:49.269Z,3.11
2022-12-08T11:31:13.503Z,3.14
2022-12-08T11:32:15.075Z,3.17
2022-12-08T11:33:23.048Z,3.13
2022-12-08T11:34:41.923Z,3.12
2022-12-08T11:35:47.406Z,3.11
2022-12-08T11:36:51.087Z,3.11
2022-12-08T11:38:07.838Z,3.04
2022-12-08T11:39:17.336Z,3.06
2022-12-08T11:40:24.701Z,3.13
2022-12-08T11:41:37.699Z,3.09
2022-12-08T11:43:06.735Z,3.07
2022-12-08T11:44:40.506Z,3.06
2022-12-08T11:45:42.400Z,3.05
2022-12-08T11:46:52.014Z,3.05
2022-12-08T11:48:02.522Z,3.04
2022-12-08T11:49:10.453Z,3.03
2022-12-08T11:50:29.470Z,3.11
2022-12-08T11:51:43.676Z,3.11
2022-12-08T11:52:48.201Z,3.07
2022-12-08T11:53:49.714Z,3.04
2022-12-08T11:55:32.293Z,3.04
2022-12-08T11:56:40.212Z,3.05
2022-12-08T11:57:41.826Z,3.11
2022-12-08T11:58:51.946Z,3.07
2022-12-08T11:59:56.734Z,3.06
2022-12-08T12:00:58.254Z,3.06
2022-12-08T12:02:01.586Z,3.01
2022-12-08T12:03:18.939Z,2.95
2022-12-08T12:04:29.546Z,2.90
2022-12-08T12:06:08.678Z,2.91
2022-12-08T12:07:21.675Z,2.90
2022-12-08T12:08:35.134Z,2.83
2022-12-08T12:10:13.656Z,2.87
2022-12-08T12:11:36.357Z,2.83
2022-12-08T12:12:49.769Z,2.85
2022-12-08T12:14:11.556Z,2.76
2022-12-08T12:15:31.534Z,2.76
2022-12-08T12:16:48.291Z,2.73
2022-12-08T12:17:59.586Z,2.72
2022-12-08T12:19:11.978Z,2.72
2022-12-08T12:20:23.860Z,2.76
2022-12-08T12:21:48.376Z,2.78
2022-12-08T12:22:56.487Z,2.67
2022-12-08T12:24:04.820Z,2.70
2022-12-08T12:25:18.126Z,2.70
2022-12-08T12:26:31.770Z,2.70
2022-12-08T12:27:40.343Z,2.70
2022-12-08T12:28:48.102Z,2.70
2022-12-08T12:29:56.251Z,2.66
2022-12-08T12:31:02.747Z,2.65
2022-12-08T12:32:10.160Z,2.66
2022-12-08T12:33:15.237Z,2.65
2022-12-08T12:34:21.735Z,2.65
2022-12-08T12:35:34.408Z,2.66
2022-12-08T12:37:08.832Z,2.73
2022-12-08T12:38:32.021Z,2.72
2022-12-08T12:39:47.537Z,2.71
2022-12-08T12:40:49.085Z,2.75
2022-12-08T12:41:57.993Z,2.77
2022-12-08T12:43:02.224Z,2.75
2022-12-08T12:44:23.361Z,2.76
2022-12-08T12:45:29.223Z,2.73
2022-12-08T12:46:36.901Z,2.72
2022-12-08T12:47:57.548Z,2.67
2022-12-08T12:49:37.197Z,2.70
2022-12-08T12:50:52.092Z,2.72
2022-12-08T12:51:56.634Z,2.74
2022-12-08T12:53:00.859Z,2.75
2022-12-08T12:54:26.305Z,2.77
2022-12-08T12:55:47.878Z,2.78
2022-12-08T12:56:53.644Z,2.76
2022-12-08T12:57:58.364Z,2.66
2022-12-08T12:59:42.737Z,2.62
2022-12-08T13:00:44.274Z,2.65
2022-12-08T13:01:53.684Z,2.65
2022-12-08T13:02:57.669Z,2.66
2022-12-08T13:04:08.280Z,2.63
2022-12-08T13:05:15.514Z,2.62
2022-12-08T13:06:32.892Z,2.64
2022-12-08T13:07:41.689Z,2.58
2022-12-08T13:08:53.924Z,2.51
2022-12-08T13:10:00.549Z,2.51
2022-12-08T13:11:05.736Z,2.45
2022-12-08T13:12:19.617Z,2.40
2022-12-08T13:13:21.201Z,2.38
2022-12-08T13:14:31.715Z,2.42
2022-12-08T13:15:54.860Z,2.44
2022-12-08T13:16:59.080Z,2.50
2022-12-08T13:18:00.773Z,2.57
2022-12-08T13:19:09.903Z,2.52
2022-12-08T13:20:21.925Z,2.59
2022-12-08T13:21:31.522Z,2.57
2022-12-08T13:23:10.971Z,2.54
2022-12-08T13:24:29.015Z,2.53
2022-12-08T13:25:39.373Z,2.52
2022-12-08T13:26:45.793Z,2.48
2022-12-08T13:27:54.480Z,2.44
2022-12-08T13:28:58.998Z,2.41
2022-12-08T13:30:38.158Z,2.46
2022-12-08T13:31:50.115Z,2.50
2022-12-08T13:34:24.578Z,2.54
2022-12-08T13:35:26.444Z,2.58
2022-12-08T13:36:35.696Z,2.51
2022-12-08T13:37:54.573Z,2.56
2022-12-08T13:38:58.522Z,2.60
2022-12-08T13:40:16.111Z,2.64
2022-12-08T13:41:22.478Z,2.60
2022-12-08T13:42:26.997Z,2.58
2022-12-08T13:44:10.260Z,2.62
2022-12-08T13:45:30.152Z,2.63
2022-12-08T13:47:31.725Z,2.60
2022-12-08T13:48:51.213Z,2.60
2022-12-08T13:56:59.317Z,2.57
2022-12-08T13:57:27.639Z,2.58
2022-12-08T13:58:35.459Z,2.54
2022-12-08T13:59:44.225Z,2.49
2022-12-08T14:01:20.421Z,2.51
2022-12-08T14:02:29.871Z,2.53
2022-12-08T14:03:58.299Z,2.51
2022-12-08T14:05:18.139Z,2.53
2022-12-08T14:06:30.347Z,2.58
2022-12-08T14:07:32.900Z,2.60
2022-12-08T14:09:56.292Z,2.56
2022-12-08T14:11:02.423Z,2.56
2022-12-08T14:12:15.742Z,2.53
2022-12-08T14:13:17.344Z,2.49
2022-12-08T14:15:00.386Z,2.55
2022-12-08T14:15:52.669Z,2.53
2022-12-08T14:17:04.761Z,2.49
2022-12-08T14:18:22.608Z,2.47
2022-12-08T14:19:27.912Z,2.51
2022-12-08T14:20:52.016Z,2.49
2022-12-08T14:21:58.902Z,2.46
2022-12-08T14:23:00.406Z,2.46
2022-12-08T14:24:02.670Z,2.44
2022-12-08T14:25:06.311Z,2.43
2022-12-08T14:26:11.868Z,2.44
2022-12-08T14:27:19.865Z,2.43
2022-12-08T14:28:21.445Z,2.42
2022-12-08T14:29:37.339Z,2.38
2022-12-08T14:30:39.577Z,2.37
2022-12-08T14:31:41.140Z,2.37
2022-12-08T14:32:54.274Z,2.41
2022-12-08T14:33:56.697Z,2.38
2022-12-08T14:35:01.914Z,2.41
2022-12-08T14:36:03.907Z,2.42
2022-12-08T14:37:05.462Z,2.42
2022-12-08T14:38:14.089Z,2.36
2022-12-08T14:39:17.900Z,2.39
2022-12-08T14:40:22.942Z,2.40
2022-12-08T14:41:27.156Z,2.37
2022-12-08T14:42:29.183Z,2.42
2022-12-08T14:43:31.190Z,2.39
2022-12-08T14:44:38.157Z,2.37
2022-12-08T14:45:42.175Z,2.38
2022-12-08T14:47:06.979Z,2.38
2022-12-08T14:48:21.660Z,2.37
2022-12-08T14:49:37.584Z,2.35